sensor_id;sensor_type;location;lat;lon;timestamp;P1;durP1;ratioP1;P2;durP2;ratioP2
1957;SDS011;979;51.076;13.748;2023-09-07T00:01:21;23.97;;;22.70;;
1957;SDS011;979;51.076;13.748;2023-09-07T00:03:49;24.00;;;22.60;;
1957;SDS011;979;51.076;13.748;2023-09-07T00:06:18;24.60;;;23.00;;
1957;SDS011;979;51.076;13.748;2023-09-07T00:08:47;24.87;;;23.37;;
1957;SDS011;979;51.076;13.748;2023-09-07T00:11:15;25.47;;;23.87;;
1957;SDS011;979;51.076;13.748;2023-09-07T00:13:45;24.30;;;22.83;;
1957;SDS011;979;51.076;13.748;2023-09-07T00:16:19;25.07;;;23.60;;
1957;SDS011;979;51.076;13.748;2023-09-07T00:18:48;23.77;;;22.47;;
1957;SDS011;979;51.076;13.748;2023-09-07T00:21:16;25.20;;;23.70;;
1957;SDS011;979;51.076;13.748;2023-09-07T00:23:45;23.87;;;22.30;;
1957;SDS011;979;51.076;13.748;2023-09-07T00:26:13;25.47;;;23.87;;
1957;SDS011;979;51.076;13.748;2023-09-07T00:28:42;25.00;;;23.50;;
1957;SDS011;979;51.076;13.748;2023-09-07T00:31:12;24.07;;;22.77;;
1957;SDS011;979;51.076;13.748;2023-09-07T00:33:40;24.00;;;22.67;;
1957;SDS011;979;51.076;13.748;2023-09-07T00:36:09;25.10;;;23.70;;
1957;SDS011;979;51.076;13.748;2023-09-07T00:38:37;26.40;;;24.30;;
1957;SDS011;979;51.076;13.748;2023-09-07T00:41:06;24.43;;;22.83;;
1957;SDS011;979;51.076;13.748;2023-09-07T00:43:35;24.37;;;22.87;;
1957;SDS011;979;51.076;13.748;2023-09-07T00:46:07;25.33;;;23.73;;
1957;SDS011;979;51.076;13.748;2023-09-07T00:48:37;25.33;;;23.73;;
1957;SDS011;979;51.076;13.748;2023-09-07T00:51:09;24.80;;;23.33;;
1957;SDS011;979;51.076;13.748;2023-09-07T00:53:38;25.80;;;24.20;;
1957;SDS011;979;51.076;13.748;2023-09-07T00:56:07;25.17;;;23.57;;
1957;SDS011;979;51.076;13.748;2023-09-07T00:58:42;24.00;;;22.70;;
1957;SDS011;979;51.076;13.748;2023-09-07T01:01:11;26.10;;;24.10;;
1957;SDS011;979;51.076;13.748;2023-09-07T01:03:43;25.47;;;23.77;;
1957;SDS011;979;51.076;13.748;2023-09-07T01:06:13;25.50;;;23.80;;
1957;SDS011;979;51.076;13.748;2023-09-07T01:08:46;26.17;;;24.47;;
1957;SDS011;979;51.076;13.748;2023-09-07T01:11:18;24.70;;;23.10;;
1957;SDS011;979;51.076;13.748;2023-09-07T01:13:50;25.10;;;23.50;;
1957;SDS011;979;51.076;13.748;2023-09-07T01:16:20;25.17;;;23.50;;
1957;SDS011;979;51.076;13.748;2023-09-07T01:18:52;25.33;;;23.80;;
1957;SDS011;979;51.076;13.748;2023-09-07T01:21:21;24.67;;;23.17;;
1957;SDS011;979;51.076;13.748;2023-09-07T01:23:52;25.40;;;23.70;;
1957;SDS011;979;51.076;13.748;2023-09-07T01:26:22;25.03;;;23.53;;
1957;SDS011;979;51.076;13.748;2023-09-07T01:28:51;24.90;;;23.30;;
1957;SDS011;979;51.076;13.748;2023-09-07T01:31:20;25.93;;;24.33;;
1957;SDS011;979;51.076;13.748;2023-09-07T01:33:49;25.90;;;24.30;;
1957;SDS011;979;51.076;13.748;2023-09-07T01:36:17;25.67;;;24.17;;
1957;SDS011;979;51.076;13.748;2023-09-07T01:38:46;24.90;;;23.10;;
1957;SDS011;979;51.076;13.748;2023-09-07T01:41:16;25.03;;;23.43;;
1957;SDS011;979;51.076;13.748;2023-09-07T01:43:45;25.00;;;23.03;;
1957;SDS011;979;51.076;13.748;2023-09-07T01:46:13;24.53;;;23.13;;
1957;SDS011;979;51.076;13.748;2023-09-07T01:48:42;24.93;;;23.33;;
1957;SDS011;979;51.076;13.748;2023-09-07T01:51:10;25.30;;;23.50;;
1957;SDS011;979;51.076;13.748;2023-09-07T01:53:41;24.43;;;23.03;;
1957;SDS011;979;51.076;13.748;2023-09-07T01:56:10;25.77;;;24.07;;
1957;SDS011;979;51.076;13.748;2023-09-07T01:58:40;25.30;;;23.70;;
1957;SDS011;979;51.076;13.748;2023-09-07T02:01:19;23.80;;;22.43;;
1957;SDS011;979;51.076;13.748;2023-09-07T02:03:51;24.50;;;22.90;;
1957;SDS011;979;51.076;13.748;2023-09-07T02:06:22;24.70;;;23.10;;
1957;SDS011;979;51.076;13.748;2023-09-07T02:08:53;24.83;;;23.40;;
1957;SDS011;979;51.076;13.748;2023-09-07T02:11:22;24.97;;;23.37;;
1957;SDS011;979;51.076;13.748;2023-09-07T02:13:52;25.47;;;23.67;;
1957;SDS011;979;51.076;13.748;2023-09-07T02:16:21;25.40;;;23.80;;
1957;SDS011;979;51.076;13.748;2023-09-07T02:19:04;23.60;;;22.20;;
1957;SDS011;979;51.076;13.748;2023-09-07T02:21:40;23.73;;;22.27;;
1957;SDS011;979;51.076;13.748;2023-09-07T02:24:08;24.60;;;22.90;;
1957;SDS011;979;51.076;13.748;2023-09-07T02:26:37;24.33;;;22.73;;
1957;SDS011;979;51.076;13.748;2023-09-07T02:29:11;24.33;;;22.70;;
1957;SDS011;979;51.076;13.748;2023-09-07T02:31:40;24.30;;;22.90;;
1957;SDS011;979;51.076;13.748;2023-09-07T02:34:09;24.77;;;23.30;;
1957;SDS011;979;51.076;13.748;2023-09-07T02:36:37;24.30;;;22.60;;
1957;SDS011;979;51.076;13.748;2023-09-07T02:39:06;24.23;;;22.67;;
1957;SDS011;979;51.076;13.748;2023-09-07T02:41:35;24.83;;;23.20;;
1957;SDS011;979;51.076;13.748;2023-09-07T02:44:04;25.87;;;24.07;;
1957;SDS011;979;51.076;13.748;2023-09-07T02:46:34;24.30;;;22.80;;
1957;SDS011;979;51.076;13.748;2023-09-07T02:49:04;24.90;;;23.30;;
1957;SDS011;979;51.076;13.748;2023-09-07T02:51:34;25.13;;;23.40;;
1957;SDS011;979;51.076;13.748;2023-09-07T02:54:04;23.93;;;22.53;;
1957;SDS011;979;51.076;13.748;2023-09-07T02:56:35;25.77;;;23.90;;
1957;SDS011;979;51.076;13.748;2023-09-07T02:59:04;25.30;;;23.60;;
1957;SDS011;979;51.076;13.748;2023-09-07T03:01:35;25.80;;;23.77;;
1957;SDS011;979;51.076;13.748;2023-09-07T03:04:07;27.37;;;25.00;;
1957;SDS011;979;51.076;13.748;2023-09-07T03:06:36;24.70;;;23.13;;
1957;SDS011;979;51.076;13.748;2023-09-07T03:09:07;24.73;;;23.03;;
1957;SDS011;979;51.076;13.748;2023-09-07T03:11:37;24.73;;;23.00;;
1957;SDS011;979;51.076;13.748;2023-09-07T03:14:07;25.70;;;23.90;;
1957;SDS011;979;51.076;13.748;2023-09-07T03:16:38;24.90;;;23.10;;
1957;SDS011;979;51.076;13.748;2023-09-07T03:19:10;24.83;;;22.90;;
1957;SDS011;979;51.076;13.748;2023-09-07T03:21:39;23.60;;;22.10;;
1957;SDS011;979;51.076;13.748;2023-09-07T03:24:08;25.03;;;23.37;;
1957;SDS011;979;51.076;13.748;2023-09-07T03:26:37;24.80;;;23.20;;
1957;SDS011;979;51.076;13.748;2023-09-07T03:29:06;25.40;;;23.77;;
1957;SDS011;979;51.076;13.748;2023-09-07T03:31:35;24.90;;;23.10;;
1957;SDS011;979;51.076;13.748;2023-09-07T03:34:05;24.07;;;22.57;;
1957;SDS011;979;51.076;13.748;2023-09-07T03:36:33;25.20;;;23.50;;
1957;SDS011;979;51.076;13.748;2023-09-07T03:39:03;23.10;;;21.53;;
1957;SDS011;979;51.076;13.748;2023-09-07T03:41:34;24.33;;;22.63;;
1957;SDS011;979;51.076;13.748;2023-09-07T03:44:04;24.43;;;22.93;;
1957;SDS011;979;51.076;13.748;2023-09-07T03:46:34;25.10;;;23.50;;
1957;SDS011;979;51.076;13.748;2023-09-07T03:49:04;24.20;;;22.50;;
1957;SDS011;979;51.076;13.748;2023-09-07T03:51:33;26.37;;;24.33;;
1957;SDS011;979;51.076;13.748;2023-09-07T03:54:02;25.37;;;23.47;;
1957;SDS011;979;51.076;13.748;2023-09-07T03:56:32;25.00;;;23.40;;
1957;SDS011;979;51.076;13.748;2023-09-07T03:59:03;25.13;;;23.60;;
1957;SDS011;979;51.076;13.748;2023-09-07T04:01:31;23.40;;;22.00;;
1957;SDS011;979;51.076;13.748;2023-09-07T04:04:00;25.00;;;23.30;;
1957;SDS011;979;51.076;13.748;2023-09-07T04:06:31;24.73;;;22.70;;
1957;SDS011;979;51.076;13.748;2023-09-07T04:08:59;23.60;;;22.03;;
1957;SDS011;979;51.076;13.748;2023-09-07T04:11:35;24.60;;;22.80;;
1957;SDS011;979;51.076;13.748;2023-09-07T04:14:05;25.60;;;22.90;;
1957;SDS011;979;51.076;13.748;2023-09-07T04:16:35;23.87;;;22.27;;
1957;SDS011;979;51.076;13.748;2023-09-07T04:19:06;25.17;;;23.07;;
1957;SDS011;979;51.076;13.748;2023-09-07T04:21:37;25.87;;;23.70;;
1957;SDS011;979;51.076;13.748;2023-09-07T04:24:06;25.50;;;23.67;;
1957;SDS011;979;51.076;13.748;2023-09-07T04:26:49;25.03;;;23.43;;
1957;SDS011;979;51.076;13.748;2023-09-07T04:29:18;25.17;;;23.60;;
1957;SDS011;979;51.076;13.748;2023-09-07T04:31:47;26.00;;;24.13;;
1957;SDS011;979;51.076;13.748;2023-09-07T04:34:26;25.40;;;23.70;;
1957;SDS011;979;51.076;13.748;2023-09-07T04:36:56;25.60;;;23.90;;
1957;SDS011;979;51.076;13.748;2023-09-07T04:39:24;24.83;;;23.10;;
1957;SDS011;979;51.076;13.748;2023-09-07T04:41:53;24.03;;;22.33;;
1957;SDS011;979;51.076;13.748;2023-09-07T04:44:23;24.80;;;23.10;;
1957;SDS011;979;51.076;13.748;2023-09-07T04:46:54;25.50;;;23.70;;
1957;SDS011;979;51.076;13.748;2023-09-07T04:49:23;24.33;;;22.73;;
1957;SDS011;979;51.076;13.748;2023-09-07T04:51:53;25.40;;;23.40;;
1957;SDS011;979;51.076;13.748;2023-09-07T04:54:23;26.40;;;23.80;;
1957;SDS011;979;51.076;13.748;2023-09-07T04:56:51;24.77;;;22.97;;
1957;SDS011;979;51.076;13.748;2023-09-07T04:59:22;25.87;;;23.17;;
1957;SDS011;979;51.076;13.748;2023-09-07T05:02:12;25.03;;;23.13;;
1957;SDS011;979;51.076;13.748;2023-09-07T05:04:42;25.93;;;24.10;;
1957;SDS011;979;51.076;13.748;2023-09-07T05:07:14;25.80;;;24.30;;
1957;SDS011;979;51.076;13.748;2023-09-07T05:13:24;24.83;;;22.87;;
1957;SDS011;979;51.076;13.748;2023-09-07T05:16:00;26.63;;;24.63;;
1957;SDS011;979;51.076;13.748;2023-09-07T05:18:36;25.70;;;23.90;;
1957;SDS011;979;51.076;13.748;2023-09-07T05:47:49;26.40;;;24.57;;
1957;SDS011;979;51.076;13.748;2023-09-07T05:53:27;25.50;;;23.90;;
1957;SDS011;979;51.076;13.748;2023-09-07T06:20:32;25.57;;;24.07;;
1957;SDS011;979;51.076;13.748;2023-09-07T06:23:15;27.77;;;25.70;;
1957;SDS011;979;51.076;13.748;2023-09-07T06:25:46;27.33;;;25.57;;
1957;SDS011;979;51.076;13.748;2023-09-07T06:28:23;27.57;;;25.80;;
1957;SDS011;979;51.076;13.748;2023-09-07T06:31:35;26.30;;;24.70;;
1957;SDS011;979;51.076;13.748;2023-09-07T06:34:15;25.00;;;23.57;;
1957;SDS011;979;51.076;13.748;2023-09-07T06:37:46;25.87;;;24.27;;
1957;SDS011;979;51.076;13.748;2023-09-07T06:41:25;25.13;;;23.80;;
1957;SDS011;979;51.076;13.748;2023-09-07T06:44:52;26.77;;;24.40;;
1957;SDS011;979;51.076;13.748;2023-09-07T06:48:27;25.77;;;24.17;;
1957;SDS011;979;51.076;13.748;2023-09-07T06:51:32;24.40;;;22.90;;
1957;SDS011;979;51.076;13.748;2023-09-07T06:54:32;24.20;;;22.83;;
1957;SDS011;979;51.076;13.748;2023-09-07T06:57:33;24.83;;;23.20;;
1957;SDS011;979;51.076;13.748;2023-09-07T07:00:48;23.60;;;22.30;;
1957;SDS011;979;51.076;13.748;2023-09-07T07:03:42;24.80;;;23.10;;
1957;SDS011;979;51.076;13.748;2023-09-07T07:10:23;24.60;;;23.27;;
1957;SDS011;979;51.076;13.748;2023-09-07T07:13:27;23.90;;;22.50;;
1957;SDS011;979;51.076;13.748;2023-09-07T07:16:10;25.20;;;23.70;;
1957;SDS011;979;51.076;13.748;2023-09-07T07:18:56;24.57;;;23.27;;
1957;SDS011;979;51.076;13.748;2023-09-07T07:21:47;23.40;;;22.20;;
1957;SDS011;979;51.076;13.748;2023-09-07T07:24:57;23.00;;;21.43;;
1957;SDS011;979;51.076;13.748;2023-09-07T07:28:01;22.77;;;21.47;;
1957;SDS011;979;51.076;13.748;2023-09-07T07:31:10;23.23;;;21.83;;
1957;SDS011;979;51.076;13.748;2023-09-07T07:33:53;25.50;;;23.90;;
1957;SDS011;979;51.076;13.748;2023-09-07T07:36:43;22.50;;;21.10;;
1957;SDS011;979;51.076;13.748;2023-09-07T07:39:31;23.33;;;21.63;;
1957;SDS011;979;51.076;13.748;2023-09-07T07:42:18;23.60;;;22.20;;
1957;SDS011;979;51.076;13.748;2023-09-07T07:48:02;22.60;;;21.50;;
1957;SDS011;979;51.076;13.748;2023-09-07T07:50:56;23.57;;;22.20;;
1957;SDS011;979;51.076;13.748;2023-09-07T07:53:43;23.50;;;22.30;;
1957;SDS011;979;51.076;13.748;2023-09-07T07:56:24;23.43;;;22.03;;
1957;SDS011;979;51.076;13.748;2023-09-07T07:59:04;22.63;;;21.40;;
1957;SDS011;979;51.076;13.748;2023-09-07T08:01:46;23.20;;;22.00;;
1957;SDS011;979;51.076;13.748;2023-09-07T08:04:29;22.87;;;21.73;;
1957;SDS011;979;51.076;13.748;2023-09-07T08:07:16;23.80;;;22.40;;
1957;SDS011;979;51.076;13.748;2023-09-07T08:09:52;22.50;;;21.50;;
1957;SDS011;979;51.076;13.748;2023-09-07T08:12:37;23.43;;;22.00;;
1957;SDS011;979;51.076;13.748;2023-09-07T08:15:23;23.40;;;22.27;;
1957;SDS011;979;51.076;13.748;2023-09-07T08:18:01;23.70;;;22.60;;
1957;SDS011;979;51.076;13.748;2023-09-07T08:20:41;23.50;;;22.30;;
1957;SDS011;979;51.076;13.748;2023-09-07T08:27:42;22.83;;;21.73;;
1957;SDS011;979;51.076;13.748;2023-09-07T08:33:41;23.30;;;22.00;;
1957;SDS011;979;51.076;13.748;2023-09-07T08:36:46;21.20;;;20.30;;
1957;SDS011;979;51.076;13.748;2023-09-07T08:39:32;21.40;;;20.33;;
1957;SDS011;979;51.076;13.748;2023-09-07T08:42:29;21.23;;;20.10;;
1957;SDS011;979;51.076;13.748;2023-09-07T08:45:15;22.10;;;21.00;;
1957;SDS011;979;51.076;13.748;2023-09-07T08:48:14;21.70;;;20.60;;
1957;SDS011;979;51.076;13.748;2023-09-07T08:54:24;21.17;;;20.27;;
1957;SDS011;979;51.076;13.748;2023-09-07T08:57:46;21.13;;;20.30;;
1957;SDS011;979;51.076;13.748;2023-09-07T09:00:29;21.37;;;20.40;;
1957;SDS011;979;51.076;13.748;2023-09-07T09:03:37;21.80;;;20.90;;
1957;SDS011;979;51.076;13.748;2023-09-07T09:06:33;21.40;;;20.50;;
1957;SDS011;979;51.076;13.748;2023-09-07T09:09:21;22.00;;;20.93;;
1957;SDS011;979;51.076;13.748;2023-09-07T09:12:34;22.10;;;21.10;;
1957;SDS011;979;51.076;13.748;2023-09-07T09:15:09;22.60;;;21.50;;
1957;SDS011;979;51.076;13.748;2023-09-07T09:18:18;24.67;;;23.17;;
1957;SDS011;979;51.076;13.748;2023-09-07T09:21:20;21.27;;;20.47;;
1957;SDS011;979;51.076;13.748;2023-09-07T09:24:09;21.67;;;20.70;;
1957;SDS011;979;51.076;13.748;2023-09-07T09:27:13;22.80;;;21.63;;
1957;SDS011;979;51.076;13.748;2023-09-07T09:30:06;23.60;;;22.17;;
1957;SDS011;979;51.076;13.748;2023-09-07T09:32:48;22.00;;;21.10;;
1957;SDS011;979;51.076;13.748;2023-09-07T09:35:50;23.27;;;21.93;;
1957;SDS011;979;51.076;13.748;2023-09-07T09:38:53;22.37;;;21.37;;
1957;SDS011;979;51.076;13.748;2023-09-07T10:00:11;23.07;;;21.87;;
1957;SDS011;979;51.076;13.748;2023-09-07T10:03:02;22.60;;;21.50;;
1957;SDS011;979;51.076;13.748;2023-09-07T10:06:09;23.10;;;21.93;;
1957;SDS011;979;51.076;13.748;2023-09-07T10:09:28;22.43;;;20.97;;
1957;SDS011;979;51.076;13.748;2023-09-07T10:12:27;22.83;;;21.73;;
1957;SDS011;979;51.076;13.748;2023-09-07T10:26:17;22.87;;;21.77;;
1957;SDS011;979;51.076;13.748;2023-09-07T10:29:43;24.13;;;22.80;;
1957;SDS011;979;51.076;13.748;2023-09-07T10:36:22;23.33;;;22.33;;
1957;SDS011;979;51.076;13.748;2023-09-07T10:40:01;23.63;;;22.53;;
1957;SDS011;979;51.076;13.748;2023-09-07T10:53:24;23.90;;;22.57;;
1957;SDS011;979;51.076;13.748;2023-09-07T10:56:02;24.63;;;23.40;;
1957;SDS011;979;51.076;13.748;2023-09-07T10:58:45;23.20;;;22.07;;
1957;SDS011;979;51.076;13.748;2023-09-07T11:01:47;23.30;;;22.00;;
1957;SDS011;979;51.076;13.748;2023-09-07T11:04:58;24.33;;;22.87;;
1957;SDS011;979;51.076;13.748;2023-09-07T11:07:55;23.93;;;22.93;;
1957;SDS011;979;51.076;13.748;2023-09-07T11:11:16;23.80;;;22.60;;
1957;SDS011;979;51.076;13.748;2023-09-07T11:17:27;25.07;;;23.87;;
1957;SDS011;979;51.076;13.748;2023-09-07T11:20:34;23.17;;;22.10;;
1957;SDS011;979;51.076;13.748;2023-09-07T11:23:34;23.57;;;22.57;;
1957;SDS011;979;51.076;13.748;2023-09-07T11:26:17;23.20;;;22.10;;
1957;SDS011;979;51.076;13.748;2023-09-07T11:29:18;24.10;;;23.00;;
1957;SDS011;979;51.076;13.748;2023-09-07T11:32:19;24.00;;;22.90;;
1957;SDS011;979;51.076;13.748;2023-09-07T11:35:09;23.80;;;22.87;;
1957;SDS011;979;51.076;13.748;2023-09-07T11:37:54;23.23;;;22.23;;
1957;SDS011;979;51.076;13.748;2023-09-07T11:43:52;23.00;;;21.90;;
1957;SDS011;979;51.076;13.748;2023-09-07T11:46:39;22.93;;;21.93;;
1957;SDS011;979;51.076;13.748;2023-09-07T11:49:12;22.40;;;21.50;;
1957;SDS011;979;51.076;13.748;2023-09-07T11:52:08;23.30;;;22.20;;
1957;SDS011;979;51.076;13.748;2023-09-07T11:55:17;22.97;;;21.90;;
1957;SDS011;979;51.076;13.748;2023-09-07T11:58:07;23.83;;;22.73;;
1957;SDS011;979;51.076;13.748;2023-09-07T12:00:52;23.47;;;22.07;;
1957;SDS011;979;51.076;13.748;2023-09-07T12:03:35;22.70;;;21.73;;
1957;SDS011;979;51.076;13.748;2023-09-07T12:06:09;21.30;;;20.40;;
1957;SDS011;979;51.076;13.748;2023-09-07T12:08:57;22.37;;;21.47;;
1957;SDS011;979;51.076;13.748;2023-09-07T12:11:37;21.37;;;20.57;;
1957;SDS011;979;51.076;13.748;2023-09-07T12:17:43;21.67;;;20.77;;
1957;SDS011;979;51.076;13.748;2023-09-07T12:20:43;21.43;;;20.63;;
1957;SDS011;979;51.076;13.748;2023-09-07T12:23:41;21.97;;;21.00;;
1957;SDS011;979;51.076;13.748;2023-09-07T12:26:27;21.60;;;20.80;;
1957;SDS011;979;51.076;13.748;2023-09-07T12:29:40;22.23;;;21.27;;
1957;SDS011;979;51.076;13.748;2023-09-07T12:32:49;22.37;;;21.50;;
1957;SDS011;979;51.076;13.748;2023-09-07T12:35:36;22.33;;;21.43;;
1957;SDS011;979;51.076;13.748;2023-09-07T12:38:22;21.35;;;20.55;;
1957;SDS011;979;51.076;13.748;2023-09-07T12:40:55;22.10;;;21.02;;
1957;SDS011;979;51.076;13.748;2023-09-07T12:44:01;21.60;;;20.70;;
1957;SDS011;979;51.076;13.748;2023-09-07T13:09:45;20.23;;;19.42;;
1957;SDS011;979;51.076;13.748;2023-09-07T13:12:45;19.73;;;19.02;;
1957;SDS011;979;51.076;13.748;2023-09-07T13:15:42;20.75;;;19.92;;
1957;SDS011;979;51.076;13.748;2023-09-07T13:18:25;20.40;;;19.50;;
1957;SDS011;979;51.076;13.748;2023-09-07T13:21:33;20.50;;;19.70;;
1957;SDS011;979;51.076;13.748;2023-09-07T13:24:18;20.08;;;19.27;;
1957;SDS011;979;51.076;13.748;2023-09-07T13:27:07;20.35;;;19.45;;
1957;SDS011;979;51.076;13.748;2023-09-07T13:29:47;20.15;;;19.33;;
1957;SDS011;979;51.076;13.748;2023-09-07T13:32:44;19.90;;;19.23;;
1957;SDS011;979;51.076;13.748;2023-09-07T13:35:30;20.23;;;19.42;;
1957;SDS011;979;51.076;13.748;2023-09-07T13:38:37;20.65;;;19.85;;
1957;SDS011;979;51.076;13.748;2023-09-07T13:41:22;19.90;;;19.20;;
1957;SDS011;979;51.076;13.748;2023-09-07T13:46:59;20.15;;;19.40;;
1957;SDS011;979;51.076;13.748;2023-09-07T13:49:34;20.42;;;19.40;;
1957;SDS011;979;51.076;13.748;2023-09-07T13:52:33;20.33;;;19.52;;
1957;SDS011;979;51.076;13.748;2023-09-07T13:55:41;20.17;;;19.17;;
1957;SDS011;979;51.076;13.748;2023-09-07T13:58:19;20.40;;;19.60;;
1957;SDS011;979;51.076;13.748;2023-09-07T14:01:27;20.77;;;20.07;;
1957;SDS011;979;51.076;13.748;2023-09-07T14:03:58;20.10;;;19.40;;
1957;SDS011;979;51.076;13.748;2023-09-07T14:06:43;19.57;;;18.87;;
1957;SDS011;979;51.076;13.748;2023-09-07T14:09:35;20.20;;;19.40;;
1957;SDS011;979;51.076;13.748;2023-09-07T14:12:13;19.88;;;19.08;;
1957;SDS011;979;51.076;13.748;2023-09-07T14:14:49;19.92;;;19.20;;
1957;SDS011;979;51.076;13.748;2023-09-07T14:20:36;19.65;;;18.95;;
1957;SDS011;979;51.076;13.748;2023-09-07T14:23:19;19.60;;;18.93;;
1957;SDS011;979;51.076;13.748;2023-09-07T14:25:56;18.80;;;18.20;;
1957;SDS011;979;51.076;13.748;2023-09-07T14:28:36;19.47;;;18.77;;
1957;SDS011;979;51.076;13.748;2023-09-07T14:31:21;19.08;;;18.25;;
1957;SDS011;979;51.076;13.748;2023-09-07T14:34:02;18.97;;;18.07;;
1957;SDS011;979;51.076;13.748;2023-09-07T14:36:49;20.07;;;19.27;;
1957;SDS011;979;51.076;13.748;2023-09-07T14:39:40;19.20;;;18.50;;
1957;SDS011;979;51.076;13.748;2023-09-07T14:42:26;18.60;;;18.00;;
1957;SDS011;979;51.076;13.748;2023-09-07T14:44:56;18.53;;;17.73;;
1957;SDS011;979;51.076;13.748;2023-09-07T14:47:32;19.20;;;18.50;;
1957;SDS011;979;51.076;13.748;2023-09-07T14:50:26;18.90;;;18.20;;
1957;SDS011;979;51.076;13.748;2023-09-07T14:53:05;18.97;;;18.37;;
1957;SDS011;979;51.076;13.748;2023-09-07T14:55:47;19.60;;;18.80;;
1957;SDS011;979;51.076;13.748;2023-09-07T14:58:33;19.70;;;18.93;;
1957;SDS011;979;51.076;13.748;2023-09-07T15:01:08;18.40;;;17.80;;
1957;SDS011;979;51.076;13.748;2023-09-07T15:03:55;18.57;;;17.97;;
1957;SDS011;979;51.076;13.748;2023-09-07T15:06:50;18.20;;;17.47;;
1957;SDS011;979;51.076;13.748;2023-09-07T15:09:31;19.07;;;18.27;;
1957;SDS011;979;51.076;13.748;2023-09-07T15:12:08;18.43;;;17.70;;
1957;SDS011;979;51.076;13.748;2023-09-07T15:14:43;19.23;;;18.53;;
1957;SDS011;979;51.076;13.748;2023-09-07T15:17:36;21.07;;;20.00;;
1957;SDS011;979;51.076;13.748;2023-09-07T15:20:36;20.17;;;19.37;;
1957;SDS011;979;51.076;13.748;2023-09-07T15:23:37;20.07;;;19.27;;
1957;SDS011;979;51.076;13.748;2023-09-07T15:26:39;20.23;;;19.10;;
1957;SDS011;979;51.076;13.748;2023-09-07T15:29:20;20.30;;;19.33;;
1957;SDS011;979;51.076;13.748;2023-09-07T15:32:39;19.47;;;18.47;;
1957;SDS011;979;51.076;13.748;2023-09-07T15:35:31;19.03;;;18.23;;
1957;SDS011;979;51.076;13.748;2023-09-07T15:38:18;18.97;;;18.27;;
1957;SDS011;979;51.076;13.748;2023-09-07T15:41:15;19.40;;;18.50;;
1957;SDS011;979;51.076;13.748;2023-09-07T15:44:21;19.70;;;18.90;;
1957;SDS011;979;51.076;13.748;2023-09-07T15:47:09;20.07;;;19.10;;
1957;SDS011;979;51.076;13.748;2023-09-07T15:50:12;18.80;;;18.10;;
1957;SDS011;979;51.076;13.748;2023-09-07T15:53:02;19.93;;;18.93;;
1957;SDS011;979;51.076;13.748;2023-09-07T15:55:58;19.13;;;18.33;;
1957;SDS011;979;51.076;13.748;2023-09-07T15:58:32;21.00;;;20.13;;
1957;SDS011;979;51.076;13.748;2023-09-07T16:01:25;20.33;;;19.53;;
1957;SDS011;979;51.076;13.748;2023-09-07T16:04:16;19.70;;;18.63;;
1957;SDS011;979;51.076;13.748;2023-09-07T16:06:54;19.60;;;18.80;;
1957;SDS011;979;51.076;13.748;2023-09-07T16:09:51;19.57;;;18.77;;
1957;SDS011;979;51.076;13.748;2023-09-07T16:13:04;19.77;;;18.77;;
1957;SDS011;979;51.076;13.748;2023-09-07T16:15:33;19.33;;;18.53;;
1957;SDS011;979;51.076;13.748;2023-09-07T16:21:22;18.17;;;17.40;;
1957;SDS011;979;51.076;13.748;2023-09-07T16:24:05;18.87;;;17.87;;
1957;SDS011;979;51.076;13.748;2023-09-07T16:27:13;18.37;;;17.67;;
1957;SDS011;979;51.076;13.748;2023-09-07T16:30:04;17.93;;;17.23;;
1957;SDS011;979;51.076;13.748;2023-09-07T16:32:58;16.70;;;16.10;;
1957;SDS011;979;51.076;13.748;2023-09-07T16:35:59;17.87;;;17.27;;
1957;SDS011;979;51.076;13.748;2023-09-07T16:38:56;19.30;;;18.40;;
1957;SDS011;979;51.076;13.748;2023-09-07T16:41:44;19.13;;;18.23;;
1957;SDS011;979;51.076;13.748;2023-09-07T16:44:32;20.60;;;19.07;;
1957;SDS011;979;51.076;13.748;2023-09-07T16:47:29;18.40;;;17.70;;
1957;SDS011;979;51.076;13.748;2023-09-07T16:50:14;18.30;;;17.40;;
1957;SDS011;979;51.076;13.748;2023-09-07T16:52:55;19.67;;;18.83;;
1957;SDS011;979;51.076;13.748;2023-09-07T16:55:32;19.17;;;18.30;;
1957;SDS011;979;51.076;13.748;2023-09-07T16:58:12;19.07;;;18.00;;
1957;SDS011;979;51.076;13.748;2023-09-07T17:00:46;22.17;;;20.93;;
1957;SDS011;979;51.076;13.748;2023-09-07T17:03:54;20.57;;;19.47;;
1957;SDS011;979;51.076;13.748;2023-09-07T17:19:21;19.83;;;18.83;;
1957;SDS011;979;51.076;13.748;2023-09-07T17:22:27;21.00;;;19.47;;
1957;SDS011;979;51.076;13.748;2023-09-07T17:25:06;20.00;;;19.10;;
1957;SDS011;979;51.076;13.748;2023-09-07T17:27:59;19.87;;;18.77;;
1957;SDS011;979;51.076;13.748;2023-09-07T17:30:38;20.03;;;19.20;;
1957;SDS011;979;51.076;13.748;2023-09-07T17:33:11;19.50;;;18.60;;
1957;SDS011;979;51.076;13.748;2023-09-07T17:36:04;19.00;;;18.20;;
1957;SDS011;979;51.076;13.748;2023-09-07T17:39:05;19.50;;;18.60;;
1957;SDS011;979;51.076;13.748;2023-09-07T17:41:51;19.63;;;18.73;;
1957;SDS011;979;51.076;13.748;2023-09-07T17:44:37;19.07;;;18.17;;
1957;SDS011;979;51.076;13.748;2023-09-07T17:47:16;18.63;;;17.80;;
1957;SDS011;979;51.076;13.748;2023-09-07T17:50:05;19.27;;;18.47;;
1957;SDS011;979;51.076;13.748;2023-09-07T17:52:38;20.40;;;19.30;;
1957;SDS011;979;51.076;13.748;2023-09-07T17:55:18;20.07;;;18.87;;
1957;SDS011;979;51.076;13.748;2023-09-07T17:58:03;20.00;;;19.00;;
1957;SDS011;979;51.076;13.748;2023-09-07T18:00:44;19.70;;;18.60;;
1957;SDS011;979;51.076;13.748;2023-09-07T18:03:22;19.50;;;18.40;;
1957;SDS011;979;51.076;13.748;2023-09-07T18:06:07;19.73;;;18.63;;
1957;SDS011;979;51.076;13.748;2023-09-07T18:09:09;19.40;;;18.50;;
1957;SDS011;979;51.076;13.748;2023-09-07T18:11:45;19.50;;;18.40;;
1957;SDS011;979;51.076;13.748;2023-09-07T18:14:31;20.13;;;19.20;;
1957;SDS011;979;51.076;13.748;2023-09-07T18:17:04;20.63;;;19.70;;
1957;SDS011;979;51.076;13.748;2023-09-07T18:19:52;19.93;;;18.67;;
1957;SDS011;979;51.076;13.748;2023-09-07T18:22:26;19.60;;;18.40;;
1957;SDS011;979;51.076;13.748;2023-09-07T18:25:20;19.60;;;18.70;;
1957;SDS011;979;51.076;13.748;2023-09-07T18:28:06;21.83;;;20.70;;
1957;SDS011;979;51.076;13.748;2023-09-07T18:30:58;20.30;;;19.10;;
1957;SDS011;979;51.076;13.748;2023-09-07T18:37:06;18.93;;;18.03;;
1957;SDS011;979;51.076;13.748;2023-09-07T18:40:43;19.70;;;18.60;;
1957;SDS011;979;51.076;13.748;2023-09-07T18:43:57;19.40;;;18.40;;
1957;SDS011;979;51.076;13.748;2023-09-07T18:47:22;19.90;;;18.80;;
1957;SDS011;979;51.076;13.748;2023-09-07T18:50:58;20.40;;;19.40;;
1957;SDS011;979;51.076;13.748;2023-09-07T18:54:24;23.63;;;22.03;;
1957;SDS011;979;51.076;13.748;2023-09-07T18:58:18;22.57;;;21.27;;
1957;SDS011;979;51.076;13.748;2023-09-07T19:05:54;20.30;;;19.30;;
1957;SDS011;979;51.076;13.748;2023-09-07T19:09:41;19.93;;;18.90;;
1957;SDS011;979;51.076;13.748;2023-09-07T19:16:57;20.27;;;18.90;;
1957;SDS011;979;51.076;13.748;2023-09-07T19:23:45;20.30;;;19.13;;
1957;SDS011;979;51.076;13.748;2023-09-07T19:26:36;19.67;;;18.47;;
1957;SDS011;979;51.076;13.748;2023-09-07T19:29:35;20.30;;;19.30;;
1957;SDS011;979;51.076;13.748;2023-09-07T19:32:38;21.53;;;20.33;;
1957;SDS011;979;51.076;13.748;2023-09-07T19:36:08;19.93;;;19.03;;
1957;SDS011;979;51.076;13.748;2023-09-07T19:38:39;20.57;;;19.40;;
1957;SDS011;979;51.076;13.748;2023-09-07T19:41:34;21.10;;;19.60;;
1957;SDS011;979;51.076;13.748;2023-09-07T19:44:26;21.77;;;20.30;;